<?xml version='1.0' encoding='UTF-8'?><gpx version="1.1" creator="JPX - https://github.com/jenetics/jpx" xmlns="http://www.topografix.com/GPX/1/1"><trk><trkseg><trkpt lat="48.57617097416864" lon="-4.413856377364571"><ele>64.42857142857143</ele><time>2026-04-26T17:34:19Z</time></trkpt><trkpt lat="48.576226033317056" lon="-4.413781203369948"><ele>64.85714285714285</ele><time>2026-04-26T17:35:47Z</time></trkpt><trkpt lat="48.576298389158424" lon="-4.413767596705209"><ele>65.28571428571428</ele><time>2026-04-26T17:35:52Z</time></trkpt><trkpt lat="48.57634879328251" lon="-4.413703351735424"><ele>65.71428571428571</ele><time>2026-04-26T17:35:57Z</time></trkpt><trkpt lat="48.57637833062667" lon="-4.413615535688839"><ele>66.14285714285714</ele><time>2026-04-26T17:36:03Z</time></trkpt><trkpt lat="48.576413436428766" lon="-4.413512646958157"><ele>66.57142857142857</ele><time>2026-04-26T17:36:10Z</time></trkpt><trkpt lat="48.576442644496844" lon="-4.4134220001154585"><ele>67.0</ele><time>2026-04-26T17:36:19Z</time></trkpt><trkpt lat="48.576457542222265" lon="-4.41332887206302"><ele>67.0</ele><time>2026-04-26T17:36:25Z</time></trkpt><trkpt lat="48.576463992778045" lon="-4.413199899050134"><ele>67.0</ele><time>2026-04-26T17:36:40Z</time></trkpt><trkpt lat="48.57645206378111" lon="-4.413039731440594"><ele>67.0</ele><time>2026-04-26T17:36:42Z</time></trkpt><trkpt lat="48.57648361872934" lon="-4.412952324008336"><ele>67.0</ele><time>2026-04-26T17:36:43Z</time></trkpt><trkpt lat="48.576464159405354" lon="-4.412841643226663"><ele>67.0</ele><time>2026-04-26T17:36:45Z</time></trkpt><trkpt lat="48.576507191108156" lon="-4.412753232827626"><ele>67.0</ele><time>2026-04-26T17:36:48Z</time></trkpt><trkpt lat="48.57658515602272" lon="-4.412701252450215"><ele>67.0</ele><time>2026-04-26T17:36:50Z</time></trkpt><trkpt lat="48.57664268421803" lon="-4.412658724883142"><ele>67.0</ele><time>2026-04-26T17:36:54Z</time></trkpt><trkpt lat="48.576650637883894" lon="-4.412778276612328"><ele>67.0</ele><time>2026-04-26T17:37:21Z</time></trkpt><trkpt lat="48.57661038618042" lon="-4.4129324128053025"><ele>67.0</ele><time>2026-04-26T17:37:23Z</time></trkpt><trkpt lat="48.57657837779996" lon="-4.413038513927786"><ele>67.0</ele><time>2026-04-26T17:37:24Z</time></trkpt><trkpt lat="48.57653459849313" lon="-4.413177369797275"><ele>67.0</ele><time>2026-04-26T17:37:26Z</time></trkpt><trkpt lat="48.57648993555173" lon="-4.413277312272515"><ele>67.0</ele><time>2026-04-26T17:37:29Z</time></trkpt><trkpt lat="48.576490770530036" lon="-4.413171783739409"><ele>67.0</ele><time>2026-04-26T17:38:36Z</time></trkpt><trkpt lat="48.57650772190511" lon="-4.413079797020562"><ele>67.0</ele><time>2026-04-26T17:38:37Z</time></trkpt><trkpt lat="48.57654634210527" lon="-4.412974283551777"><ele>67.0</ele><time>2026-04-26T17:38:38Z</time></trkpt><trkpt lat="48.57658136287067" lon="-4.4128558633906865"><ele>67.0</ele><time>2026-04-26T17:38:39Z</time></trkpt><trkpt lat="48.57660572375232" lon="-4.412754033153878"><ele>67.0</ele><time>2026-04-26T17:38:40Z</time></trkpt><trkpt lat="48.576634710640455" lon="-4.412621430556617"><ele>67.14285714285714</ele><time>2026-04-26T17:38:41Z</time></trkpt><trkpt lat="48.57666538845332" lon="-4.412536701983976"><ele>67.28571428571428</ele><time>2026-04-26T17:38:42Z</time></trkpt><trkpt lat="48.576679261840965" lon="-4.412428480921663"><ele>67.42857142857142</ele><time>2026-04-26T17:38:45Z</time></trkpt><trkpt lat="48.5766751937689" lon="-4.41253780092213"><ele>67.57142857142857</ele><time>2026-04-26T17:39:09Z</time></trkpt><trkpt lat="48.57665844594627" lon="-4.412636117846504"><ele>67.71428571428571</ele><time>2026-04-26T17:39:19.001Z</time></trkpt><trkpt lat="48.576590267885436" lon="-4.412675295388488"><ele>67.85714285714285</ele><time>2026-04-26T17:40:23Z</time></trkpt><trkpt lat="48.576655460680755" lon="-4.4127143655624765"><ele>68.0</ele><time>2026-04-26T17:40:29Z</time></trkpt><trkpt lat="48.57671006909629" lon="-4.4125821753769365"><ele>68.0</ele><time>2026-04-26T17:40:47Z</time></trkpt><trkpt lat="48.57667662461892" lon="-4.412726607965888"><ele>68.0</ele><time>2026-04-26T17:41:07Z</time></trkpt></trkseg></trk></gpx>